createdAt,value
2019-04-27T00:02:36.824Z,85.60
2019-04-27T00:05:32.072Z,86.10
2019-04-27T00:08:08.800Z,86.80
2019-04-27T00:11:06.922Z,86.90
2019-04-27T00:13:34.832Z,87.30
2019-04-27T00:16:15.003Z,87.60
2019-04-27T00:19:08.915Z,87.30
2019-04-27T00:21:55.577Z,86.70
2019-04-27T00:24:25.719Z,85.50
2019-04-27T00:26:56.450Z,85.80
2019-04-27T00:29:26.687Z,85.70
2019-04-27T00:31:57.535Z,85.70
2019-04-27T00:34:28.062Z,85.70
2019-04-27T00:37:26.426Z,86.30
2019-04-27T00:40:00.767Z,86.60
2019-04-27T00:42:33.397Z,87.00
2019-04-27T00:45:05.381Z,86.90
2019-04-27T00:47:37.117Z,87.10
2019-04-27T00:50:08.086Z,87.10
2019-04-27T00:52:38.277Z,86.40
2019-04-27T00:55:09.121Z,86.90
2019-04-27T00:58:10.373Z,87.20
2019-04-27T01:01:08.767Z,87.20
2019-04-27T01:03:55.127Z,87.40
2019-04-27T01:06:25.991Z,87.20
2019-04-27T01:08:56.203Z,87.10
2019-04-27T01:11:26.763Z,87.00
2019-04-27T01:13:57.981Z,86.70
2019-04-27T01:16:29.360Z,86.40
2019-04-27T01:19:00.041Z,86.30
2019-04-27T01:21:30.691Z,86.30
2019-04-27T01:24:02.451Z,86.40
2019-04-27T01:26:58.335Z,86.70
2019-04-27T01:29:30.050Z,86.90
2019-04-27T01:32:00.218Z,86.90
2019-04-27T01:34:31.620Z,87.10
2019-04-27T01:37:01.667Z,87.20
2019-04-27T01:39:32.050Z,87.20
2019-04-27T01:42:02.696Z,87.20
2019-04-27T01:44:33.002Z,87.30
2019-04-27T01:47:05.271Z,87.80
2019-04-27T01:49:37.042Z,88.00
2019-04-27T01:52:09.591Z,88.00
2019-04-27T01:54:41.185Z,88.00
2019-04-27T01:57:12.654Z,87.80
2019-04-27T01:59:42.835Z,87.30
2019-04-27T02:02:41.115Z,86.50
2019-04-27T02:05:42.347Z,85.60
2019-04-27T02:08:16.063Z,85.90
2019-04-27T02:10:46.300Z,85.60
2019-04-27T02:13:16.745Z,85.90
2019-04-27T02:15:48.713Z,86.10
2019-04-27T02:18:19.536Z,85.90
2019-04-27T02:20:49.663Z,85.60
2019-04-27T02:23:22.014Z,85.50
2019-04-27T02:25:54.178Z,85.40
2019-04-27T02:28:31.872Z,85.30
2019-04-27T02:31:25.528Z,85.60
2019-04-27T02:34:05.662Z,85.80
2019-04-27T02:36:35.844Z,85.90
2019-04-27T02:39:09.285Z,86.30
2019-04-27T02:41:40.017Z,86.30
2019-04-27T02:44:20.721Z,86.30
2019-04-27T02:46:52.015Z,86.50
2019-04-27T02:49:24.085Z,86.70
2019-04-27T02:52:11.214Z,86.50
2019-04-27T02:54:42.517Z,86.90
2019-04-27T02:57:13.083Z,86.70
2019-04-27T02:59:43.432Z,86.60
2019-04-27T03:02:35.809Z,86.80
2019-04-27T03:05:06.777Z,87.20
2019-04-27T03:07:39.978Z,86.90
2019-04-27T03:10:10.026Z,86.90
2019-04-27T03:12:45.502Z,86.90
2019-04-27T03:15:43.796Z,86.40
2019-04-27T03:18:20.787Z,86.00
2019-04-27T03:20:57.020Z,86.00
2019-04-27T03:23:30.283Z,85.60
2019-04-27T03:26:21.340Z,85.00
2019-04-27T03:28:53.506Z,84.70
2019-04-27T03:33:59.134Z,84.70
2019-04-27T03:36:31.690Z,85.10
2019-04-27T03:39:01.840Z,85.40
2019-04-27T03:41:33.820Z,85.50
2019-04-27T03:44:04.347Z,85.00
2019-04-27T03:46:34.484Z,87.00
2019-04-27T03:49:05.007Z,85.10
2019-04-27T03:51:50.737Z,85.10
2019-04-27T03:54:29.621Z,85.20
2019-04-27T03:57:09.976Z,84.80
2019-04-27T03:59:59.809Z,85.00
2019-04-27T04:02:30.576Z,84.50
2019-04-27T04:05:00.936Z,83.90
2019-04-27T04:07:31.645Z,83.50
2019-04-27T04:10:02.145Z,82.70
2019-04-27T04:12:56.765Z,82.70
2019-04-27T04:15:36.740Z,82.50
2019-04-27T04:18:09.551Z,82.50
2019-04-27T04:20:40.388Z,82.20
2019-04-27T04:23:12.075Z,82.40
2019-04-27T04:25:42.232Z,82.30
2019-04-27T04:28:12.679Z,82.20
2019-04-27T04:30:42.925Z,82.10
2019-04-27T04:33:13.664Z,81.80
2019-04-27T04:35:43.916Z,81.60
2019-04-27T04:38:14.370Z,81.40
2019-04-27T04:40:50.561Z,81.80
2019-04-27T04:43:33.546Z,82.00
2019-04-27T04:46:22.845Z,81.70
2019-04-27T04:48:53.399Z,81.40
2019-04-27T04:51:23.604Z,80.70
2019-04-27T04:53:54.304Z,80.00
2019-04-27T04:56:24.523Z,80.40
2019-04-27T04:58:55.062Z,80.10
2019-04-27T05:01:25.307Z,80.70
2019-04-27T05:03:55.504Z,81.30
2019-04-27T05:06:25.958Z,81.50
2019-04-27T05:08:59.342Z,80.90
2019-04-27T05:11:29.876Z,80.90
2019-04-27T05:14:01.572Z,80.60
2019-04-27T05:16:32.887Z,80.80
2019-04-27T05:19:03.386Z,80.00
2019-04-27T05:21:34.939Z,79.90
2019-04-27T05:24:05.869Z,78.50
2019-04-27T05:26:36.334Z,78.90
2019-04-27T05:29:06.721Z,78.90
2019-04-27T05:31:38.793Z,79.00
2019-04-27T05:34:09.687Z,79.30
2019-04-27T05:36:41.647Z,80.40
2019-04-27T05:39:13.361Z,80.80
2019-04-27T05:41:43.762Z,81.00
2019-04-27T05:44:39.721Z,81.20
2019-04-27T05:47:29.229Z,82.20
2019-04-27T05:50:06.619Z,82.50
2019-04-27T05:52:36.819Z,82.40
2019-04-27T05:55:08.726Z,83.30
2019-04-27T05:57:39.164Z,83.80
2019-04-27T06:00:11.671Z,82.90
2019-04-27T06:02:42.206Z,83.20
2019-04-27T06:05:12.515Z,83.30
2019-04-27T06:10:12.634Z,82.60
2019-04-27T06:12:43.596Z,83.20
2019-04-27T06:15:13.748Z,83.10
2019-04-27T06:17:44.871Z,82.70
2019-04-27T06:20:16.512Z,82.80
2019-04-27T06:22:49.054Z,82.40
2019-04-27T06:25:21.926Z,82.20
2019-04-27T06:27:52.516Z,81.50
2019-04-27T06:30:24.140Z,80.20
2019-04-27T06:32:54.413Z,78.90
2019-04-27T06:35:24.555Z,79.20
2019-04-27T06:37:56.025Z,78.30
2019-04-27T06:40:26.281Z,78.30
2019-04-27T06:42:56.479Z,76.70
2019-04-27T06:45:28.560Z,77.30
2019-04-27T06:47:59.545Z,78.00
2019-04-27T06:50:29.973Z,78.20
2019-04-27T06:53:00.092Z,77.90
2019-04-27T06:55:30.822Z,77.50
2019-04-27T06:58:01.166Z,77.20
2019-04-27T07:00:32.992Z,77.70
2019-04-27T07:03:03.321Z,78.20
2019-04-27T07:05:33.675Z,77.20
2019-04-27T07:08:03.998Z,77.10
2019-04-27T07:10:34.378Z,77.70
2019-04-27T07:13:04.704Z,77.00
2019-04-27T07:15:35.717Z,75.40
2019-04-27T07:18:06.381Z,75.60
2019-04-27T07:20:38.741Z,76.00
2019-04-27T07:23:09.498Z,75.40
2019-04-27T07:25:39.844Z,75.30
2019-04-27T07:28:10.365Z,74.60
2019-04-27T07:30:40.575Z,73.60
2019-04-27T07:33:12.905Z,74.40
2019-04-27T07:35:43.395Z,74.60
2019-04-27T07:38:13.599Z,74.10
2019-04-27T07:40:43.920Z,74.00
2019-04-27T07:43:29.250Z,74.80
2019-04-27T07:45:59.082Z,75.00
2019-04-27T07:48:29.538Z,73.80
2019-04-27T07:51:00.170Z,74.30
2019-04-27T07:53:30.489Z,75.00
2019-04-27T07:56:00.688Z,75.40
2019-04-27T07:58:30.987Z,75.20
2019-04-27T08:01:01.748Z,76.40
2019-04-27T08:03:32.087Z,75.90
2019-04-27T08:06:05.281Z,74.90
2019-04-27T08:08:35.556Z,76.10
2019-04-27T08:11:08.830Z,75.80
2019-04-27T08:13:40.776Z,75.80
2019-04-27T08:16:11.442Z,74.90
2019-04-27T08:18:41.814Z,76.40
2019-04-27T08:21:12.194Z,75.80
2019-04-27T08:23:42.517Z,75.90
2019-04-27T08:26:21.996Z,76.30
2019-04-27T08:29:04.945Z,75.90
2019-04-27T08:31:48.619Z,76.00
2019-04-27T08:34:34.002Z,76.20
2019-04-27T08:37:05.103Z,76.50
2019-04-27T08:39:35.419Z,76.50
2019-04-27T08:42:05.817Z,75.40
2019-04-27T08:44:36.177Z,76.10
2019-04-27T08:47:06.770Z,75.50
2019-04-27T08:49:37.109Z,75.50
2019-04-27T08:52:09.406Z,75.20
2019-04-27T08:54:39.908Z,74.30
2019-04-27T08:57:10.119Z,74.90
2019-04-27T08:59:42.093Z,74.70
2019-04-27T09:02:15.072Z,74.00
2019-04-27T09:04:45.298Z,73.70
2019-04-27T09:07:39.773Z,73.60
2019-04-27T09:10:18.726Z,73.80
2019-04-27T09:13:00.300Z,73.70
2019-04-27T09:15:54.543Z,73.20
2019-04-27T09:18:26.922Z,73.80
2019-04-27T09:20:59.854Z,72.50
2019-04-27T09:23:30.782Z,71.90
2019-04-27T09:26:04.135Z,70.20
2019-04-27T09:28:34.602Z,68.20
2019-04-27T09:31:05.310Z,68.90
2019-04-27T09:33:37.171Z,69.10
2019-04-27T09:36:07.849Z,68.10
2019-04-27T09:38:38.346Z,69.00
2019-04-27T09:41:08.638Z,65.60
2019-04-27T09:43:39.429Z,65.00
2019-04-27T09:46:11.062Z,64.90
2019-04-27T09:48:42.975Z,64.20
2019-04-27T09:51:13.157Z,65.20
2019-04-27T09:53:45.869Z,65.90
2019-04-27T09:56:18.530Z,64.30
2019-04-27T09:58:49.710Z,63.10
2019-04-27T10:01:23.993Z,62.70
2019-04-27T10:04:26.300Z,60.60
2019-04-27T10:07:02.183Z,61.20
2019-04-27T10:09:55.992Z,61.20
2019-04-27T10:12:26.662Z,61.30
2019-04-27T10:14:59.872Z,58.80
2019-04-27T10:17:31.554Z,59.00
2019-04-27T10:20:05.860Z,58.70
2019-04-27T10:22:43.506Z,57.20
2019-04-27T10:25:31.642Z,58.20
2019-04-27T10:28:02.300Z,57.20
2019-04-27T10:30:32.585Z,57.40
2019-04-27T10:33:07.727Z,57.40
2019-04-27T10:35:36.511Z,58.30
2019-04-27T10:38:06.867Z,56.50
2019-04-27T10:40:37.182Z,55.80
2019-04-27T10:43:07.417Z,56.50
2019-04-27T10:45:39.462Z,55.80
2019-04-27T10:48:09.952Z,55.90
2019-04-27T10:50:40.171Z,55.80
2019-04-27T10:53:10.754Z,55.10
2019-04-27T10:55:41.999Z,57.00
2019-04-27T10:58:12.547Z,56.70
2019-04-27T11:00:48.632Z,54.50
2019-04-27T11:03:25.193Z,55.00
2019-04-27T11:06:06.766Z,53.80
2019-04-27T11:08:36.999Z,53.30
2019-04-27T11:11:08.087Z,53.60
2019-04-27T11:13:39.614Z,53.60
2019-04-27T11:16:09.762Z,53.20
2019-04-27T11:18:40.470Z,52.70
2019-04-27T11:21:12.187Z,51.60
2019-04-27T11:23:42.341Z,50.60
2019-04-27T11:26:12.482Z,50.50
2019-04-27T11:28:45.800Z,51.20
2019-04-27T11:31:17.269Z,51.60
2019-04-27T11:33:48.023Z,50.50
2019-04-27T11:36:36.210Z,49.40
2019-04-27T11:39:12.926Z,50.00
2019-04-27T11:41:43.583Z,51.00
2019-04-27T11:44:17.050Z,50.70
2019-04-27T11:46:48.504Z,50.10
2019-04-27T11:49:19.810Z,50.50
2019-04-27T11:51:50.018Z,51.60
2019-04-27T11:54:20.395Z,51.20
2019-04-27T11:56:50.947Z,51.10
2019-04-27T11:59:21.253Z,51.20
2019-04-27T12:01:51.796Z,50.60
2019-04-27T12:04:21.964Z,51.10
2019-04-27T12:06:52.491Z,50.40
2019-04-27T12:09:22.669Z,48.80
2019-04-27T12:11:53.470Z,48.80
2019-04-27T12:14:24.074Z,48.80
2019-04-27T12:16:56.117Z,48.10
2019-04-27T12:19:26.927Z,47.60
2019-04-27T12:21:57.192Z,47.50
2019-04-27T12:24:27.533Z,47.60
2019-04-27T12:27:10.227Z,47.40
2019-04-27T12:29:59.539Z,48.70
2019-04-27T12:32:30.290Z,49.60
2019-04-27T12:35:00.873Z,50.60
2019-04-27T12:37:31.456Z,50.90
2019-04-27T12:42:31.651Z,50.50
2019-04-27T12:45:01.955Z,51.90
2019-04-27T12:47:32.451Z,52.30
2019-04-27T12:50:06.151Z,53.10
2019-04-27T12:52:36.913Z,53.20
2019-04-27T12:55:20.239Z,52.90
2019-04-27T12:58:17.991Z,52.80
2019-04-27T13:00:49.934Z,50.70
2019-04-27T13:03:20.469Z,49.60
2019-04-27T13:05:50.683Z,49.10
2019-04-27T13:08:21.180Z,48.80
2019-04-27T13:10:51.486Z,48.40
2019-04-27T13:13:21.976Z,47.60
2019-04-27T13:15:56.133Z,46.50
2019-04-27T13:18:28.498Z,45.80
2019-04-27T13:21:00.399Z,45.80
2019-04-27T13:23:28.991Z,45.80
2019-04-27T13:25:59.222Z,46.10
2019-04-27T13:28:29.836Z,46.20
2019-04-27T13:31:00.115Z,46.70
2019-04-27T13:33:31.174Z,46.80
2019-04-27T13:36:01.396Z,46.90
2019-04-27T13:38:33.043Z,47.00
2019-04-27T13:41:08.000Z,46.50
2019-04-27T13:43:39.629Z,46.10
2019-04-27T13:46:32.256Z,46.40
2019-04-27T13:49:39.655Z,46.20
2019-04-27T13:52:20.003Z,45.70
2019-04-27T13:54:50.236Z,45.70
2019-04-27T13:57:20.382Z,45.70
2019-04-27T13:59:51.645Z,46.30
2019-04-27T14:02:24.225Z,46.50
2019-04-27T14:04:54.198Z,46.70
2019-04-27T14:07:26.574Z,46.70
2019-04-27T14:09:57.047Z,47.30
2019-04-27T14:12:28.500Z,49.20
2019-04-27T14:14:59.210Z,49.60
2019-04-27T14:17:29.519Z,50.30
2019-04-27T14:19:59.756Z,51.70
2019-04-27T14:22:31.493Z,50.60
2019-04-27T14:25:01.855Z,52.80
2019-04-27T14:27:40.384Z,56.40
2019-04-27T14:30:13.355Z,58.60
2019-04-27T14:32:47.378Z,59.30
2019-04-27T14:35:18.198Z,57.40
2019-04-27T14:37:50.238Z,57.40
2019-04-27T14:40:20.317Z,57.70
2019-04-27T14:42:53.497Z,57.20
2019-04-27T14:45:22.981Z,56.50
2019-04-27T14:47:53.187Z,55.10
2019-04-27T14:50:23.507Z,55.50
2019-04-27T14:52:53.710Z,56.10
2019-04-27T14:55:24.228Z,56.80
2019-04-27T14:57:54.386Z,56.80
2019-04-27T15:00:24.817Z,57.40
2019-04-27T15:02:55.545Z,57.60
2019-04-27T15:05:25.811Z,58.00
2019-04-27T15:07:56.097Z,58.60
2019-04-27T15:10:32.869Z,60.10
2019-04-27T15:13:08.371Z,62.50
2019-04-27T15:15:39.808Z,65.10
2019-04-27T15:18:10.525Z,68.90
2019-04-27T15:20:46.450Z,71.30
2019-04-27T15:23:16.478Z,72.90
2019-04-27T15:25:47.271Z,74.70
2019-04-27T15:28:22.748Z,75.50
2019-04-27T15:31:23.557Z,76.20
2019-04-27T15:34:05.548Z,76.60
2019-04-27T15:40:08.232Z,75.00
2019-04-27T15:42:41.549Z,75.00
2019-04-27T15:45:12.035Z,76.60
2019-04-27T15:47:46.887Z,77.20
2019-04-27T15:50:15.238Z,78.40
2019-04-27T15:52:45.664Z,78.90
2019-04-27T15:55:31.698Z,80.00
2019-04-27T15:57:50.456Z,78.50
2019-04-27T16:00:25.535Z,78.70
2019-04-27T16:02:56.350Z,76.10
2019-04-27T16:05:30.562Z,75.80
2019-04-27T16:08:05.257Z,76.20
2019-04-27T16:10:32.860Z,78.80
2019-04-27T16:13:07.033Z,79.70
2019-04-27T16:15:38.246Z,79.80
2019-04-27T16:18:09.867Z,80.60
2019-04-27T16:20:40.088Z,81.10
2019-04-27T16:23:10.680Z,81.70
2019-04-27T16:25:48.445Z,81.10
2019-04-27T16:28:13.495Z,81.60
2019-04-27T16:30:45.681Z,81.90
2019-04-27T16:33:20.252Z,81.40
2019-04-27T16:35:48.841Z,79.40
2019-04-27T16:38:44.432Z,79.90
2019-04-27T16:41:16.027Z,79.50
2019-04-27T16:43:49.786Z,81.80
2019-04-27T16:46:21.375Z,81.20
2019-04-27T16:48:51.867Z,82.20
2019-04-27T16:51:22.792Z,80.30
2019-04-27T16:53:55.518Z,79.40
2019-04-27T16:56:25.741Z,80.50
2019-04-27T16:59:00.780Z,80.70
2019-04-27T17:01:30.340Z,81.30
2019-04-27T17:04:02.633Z,82.10
2019-04-27T17:06:40.077Z,80.20
2019-04-27T17:09:11.351Z,79.90
2019-04-27T17:11:43.621Z,80.50
2019-04-27T17:14:34.962Z,78.90
2019-04-27T17:17:26.196Z,77.00
2019-04-27T17:22:33.098Z,75.60
2019-04-27T17:25:03.576Z,76.00
2019-04-27T17:27:45.716Z,75.80
2019-04-27T17:30:16.495Z,75.00
2019-04-27T17:33:10.317Z,75.40
2019-04-27T17:35:39.569Z,74.70
2019-04-27T17:38:12.327Z,75.50
2019-04-27T17:40:40.273Z,75.40
2019-04-27T17:43:10.696Z,75.40
2019-04-27T17:45:41.213Z,74.40
2019-04-27T17:48:14.172Z,74.10
2019-04-27T17:50:43.930Z,73.30
2019-04-27T17:53:18.063Z,73.70
2019-04-27T17:55:47.079Z,72.60
2019-04-27T17:58:18.069Z,73.50
2019-04-27T18:00:48.390Z,75.50
2019-04-27T18:03:21.069Z,75.90
2019-04-27T18:05:51.984Z,77.20
2019-04-27T18:10:57.920Z,76.60
2019-04-27T18:13:26.550Z,77.00
2019-04-27T18:15:58.867Z,77.10
2019-04-27T18:19:00.083Z,77.10
2019-04-27T18:21:33.171Z,77.20
2019-04-27T18:24:08.712Z,77.70
2019-04-27T18:27:04.274Z,78.40
2019-04-27T18:29:33.254Z,78.80
2019-04-27T18:32:03.980Z,79.20
2019-04-27T18:34:34.199Z,79.70
2019-04-27T18:37:04.650Z,79.90
2019-04-27T18:39:35.084Z,79.60
2019-04-27T18:42:05.571Z,79.90
2019-04-27T18:44:35.749Z,78.90
2019-04-27T18:47:08.293Z,79.40
2019-04-27T18:50:07.472Z,79.80
2019-04-27T18:52:47.235Z,80.50
2019-04-27T18:55:16.703Z,81.50
2019-04-27T18:57:51.081Z,81.30
2019-04-27T19:00:20.673Z,81.80
2019-04-27T19:02:51.197Z,79.60
2019-04-27T19:05:22.212Z,80.00
2019-04-27T19:07:52.276Z,79.00
2019-04-27T19:10:22.801Z,78.70
2019-04-27T19:12:53.115Z,79.10
2019-04-27T19:15:23.919Z,78.80
2019-04-27T19:17:54.160Z,79.20
2019-04-27T19:20:24.315Z,79.00
2019-04-27T19:22:54.764Z,77.80
2019-04-27T19:25:33.143Z,77.00
2019-04-27T19:28:21.010Z,78.00
2019-04-27T19:30:57.669Z,78.00
2019-04-27T19:33:29.173Z,77.20
2019-04-27T19:38:29.866Z,76.90
2019-04-27T19:41:00.219Z,78.10
2019-04-27T19:43:30.679Z,77.70
2019-04-27T19:46:02.289Z,77.90
2019-04-27T19:48:33.497Z,79.60
2019-04-27T19:51:03.774Z,78.30
2019-04-27T19:53:34.466Z,78.80
2019-04-27T19:56:06.816Z,78.30
2019-04-27T19:58:42.586Z,78.20
2019-04-27T20:01:40.135Z,78.50
2019-04-27T20:04:19.833Z,78.80
2019-04-27T20:06:51.474Z,78.20
2019-04-27T20:09:31.067Z,78.90
2019-04-27T20:12:05.065Z,78.50
2019-04-27T20:14:54.035Z,78.90
2019-04-27T20:17:25.344Z,79.50
2019-04-27T20:19:57.105Z,79.40
2019-04-27T20:22:27.308Z,79.70
2019-04-27T20:24:57.872Z,78.80
2019-04-27T20:27:28.164Z,78.60
2019-04-27T20:30:00.672Z,79.00
2019-04-27T20:32:31.436Z,78.60
2019-04-27T20:35:03.743Z,78.90
2019-04-27T20:37:34.357Z,79.20
2019-04-27T20:40:07.427Z,79.20
2019-04-27T20:42:37.937Z,79.40
2019-04-27T20:45:12.003Z,80.10
2019-04-27T20:47:44.314Z,80.20
2019-04-27T20:50:14.999Z,80.80
2019-04-27T20:52:53.307Z,79.60
2019-04-27T20:55:23.775Z,79.80
2019-04-27T20:58:01.577Z,79.50
2019-04-27T21:00:26.112Z,79.80
2019-04-27T21:03:12.775Z,79.80
2019-04-27T21:06:08.227Z,79.00
2019-04-27T21:08:41.149Z,79.00
2019-04-27T21:11:13.561Z,76.80
2019-04-27T21:13:43.778Z,77.60
2019-04-27T21:16:14.258Z,77.50
2019-04-27T21:18:44.563Z,78.90
2019-04-27T21:21:15.391Z,79.10
2019-04-27T21:23:45.884Z,79.60
2019-04-27T21:26:15.969Z,80.40
2019-04-27T21:28:46.561Z,80.50
2019-04-27T21:31:16.987Z,80.20
2019-04-27T21:33:47.425Z,80.70
2019-04-27T21:36:18.036Z,80.40
2019-04-27T21:38:51.175Z,80.50
2019-04-27T21:41:22.608Z,79.90
2019-04-27T21:43:53.955Z,79.80
2019-04-27T21:46:24.326Z,79.10
2019-04-27T21:48:54.477Z,79.50
2019-04-27T21:51:24.949Z,79.20
2019-04-27T21:54:12.428Z,78.80
2019-04-27T21:56:42.992Z,78.50
2019-04-27T21:59:13.118Z,77.80
2019-04-27T22:01:44.235Z,78.30
2019-04-27T22:04:16.017Z,78.20
2019-04-27T22:06:46.308Z,75.00
2019-04-27T22:09:16.526Z,75.80
2019-04-27T22:11:46.957Z,76.30
2019-04-27T22:14:17.120Z,76.50
2019-04-27T22:16:47.283Z,76.40
2019-04-27T22:19:17.411Z,76.80
2019-04-27T22:21:47.652Z,76.10
2019-04-27T22:24:25.662Z,74.70
2019-04-27T22:26:55.869Z,73.80
2019-04-27T22:29:26.538Z,72.70
2019-04-27T22:31:56.857Z,72.00
2019-04-27T22:34:27.165Z,72.40
2019-04-27T22:36:57.344Z,71.90
2019-04-27T22:39:42.831Z,72.00
2019-04-27T22:42:41.604Z,71.10
2019-04-27T22:45:18.866Z,71.70
2019-04-27T22:47:51.090Z,70.80
2019-04-27T22:50:21.144Z,71.90
2019-04-27T22:52:51.450Z,70.70
2019-04-27T22:55:22.049Z,69.10
2019-04-27T22:57:57.363Z,69.70
2019-04-27T23:00:44.923Z,69.80
2019-04-27T23:03:21.134Z,69.50
2019-04-27T23:05:51.641Z,69.70
2019-04-27T23:08:22.657Z,69.00
2019-04-27T23:10:53.321Z,69.40
2019-04-27T23:13:23.555Z,69.50
2019-04-27T23:15:55.926Z,70.00
2019-04-27T23:18:26.060Z,69.10
2019-04-27T23:20:56.322Z,68.80
2019-04-27T23:23:26.344Z,69.20
2019-04-27T23:25:56.682Z,69.60
2019-04-27T23:28:26.763Z,69.20
2019-04-27T23:31:11.574Z,68.90
2019-04-27T23:33:44.687Z,69.20
2019-04-27T23:36:14.918Z,68.90
2019-04-27T23:38:45.033Z,69.10
2019-04-27T23:41:14.823Z,69.20
2019-04-27T23:43:44.940Z,68.90
2019-04-27T23:46:15.381Z,69.40
2019-04-27T23:48:46.550Z,69.50
2019-04-27T23:51:32.790Z,70.20
2019-04-27T23:54:03.026Z,71.00
2019-04-27T23:56:33.125Z,71.30
2019-04-27T23:59:03.366Z,71.70
